sensor_id;sensor_type;location;lat;lon;timestamp;temperature;humidity
12156;DHT22;6141;49.092;8.516;2023-05-19T00:02:38;14.10;28.00
12156;DHT22;6141;49.092;8.516;2023-05-19T00:05:28;14.00;27.80
12156;DHT22;6141;49.092;8.516;2023-05-19T00:08:19;13.90;27.90
12156;DHT22;6141;49.092;8.516;2023-05-19T00:11:10;13.90;27.70
12156;DHT22;6141;49.092;8.516;2023-05-19T00:13:59;13.70;28.50
12156;DHT22;6141;49.092;8.516;2023-05-19T00:16:49;13.80;28.50
12156;DHT22;6141;49.092;8.516;2023-05-19T00:19:38;13.90;28.30
12156;DHT22;6141;49.092;8.516;2023-05-19T00:22:27;13.80;28.60
12156;DHT22;6141;49.092;8.516;2023-05-19T00:25:18;13.80;28.60
12156;DHT22;6141;49.092;8.516;2023-05-19T00:28:06;13.80;28.20
12156;DHT22;6141;49.092;8.516;2023-05-19T00:30:55;13.80;28.40
12156;DHT22;6141;49.092;8.516;2023-05-19T00:33:44;13.80;28.20
12156;DHT22;6141;49.092;8.516;2023-05-19T00:36:33;13.90;28.30
12156;DHT22;6141;49.092;8.516;2023-05-19T00:39:21;13.90;28.10
12156;DHT22;6141;49.092;8.516;2023-05-19T00:42:12;14.00;27.60
12156;DHT22;6141;49.092;8.516;2023-05-19T00:45:01;14.10;27.60
12156;DHT22;6141;49.092;8.516;2023-05-19T00:47:50;14.10;27.70
12156;DHT22;6141;49.092;8.516;2023-05-19T00:50:39;14.00;27.60
12156;DHT22;6141;49.092;8.516;2023-05-19T00:53:28;14.00;27.50
12156;DHT22;6141;49.092;8.516;2023-05-19T00:56:19;13.80;28.10
12156;DHT22;6141;49.092;8.516;2023-05-19T00:59:10;13.90;28.00
12156;DHT22;6141;49.092;8.516;2023-05-19T01:02:00;14.10;27.80
12156;DHT22;6141;49.092;8.516;2023-05-19T01:04:49;14.20;27.70
12156;DHT22;6141;49.092;8.516;2023-05-19T01:07:40;14.20;27.40
12156;DHT22;6141;49.092;8.516;2023-05-19T01:10:29;14.30;27.00
12156;DHT22;6141;49.092;8.516;2023-05-19T01:13:18;14.40;26.90
12156;DHT22;6141;49.092;8.516;2023-05-19T01:16:11;14.50;26.50
12156;DHT22;6141;49.092;8.516;2023-05-19T01:19:09;14.60;26.20
12156;DHT22;6141;49.092;8.516;2023-05-19T01:22:26;14.80;25.90
12156;DHT22;6141;49.092;8.516;2023-05-19T01:25:41;14.70;25.50
12156;DHT22;6141;49.092;8.516;2023-05-19T01:29:02;14.70;25.90
12156;DHT22;6141;49.092;8.516;2023-05-19T01:31:58;14.80;25.30
12156;DHT22;6141;49.092;8.516;2023-05-19T01:34:48;14.80;25.40
12156;DHT22;6141;49.092;8.516;2023-05-19T01:37:38;14.70;25.50
12156;DHT22;6141;49.092;8.516;2023-05-19T01:40:31;14.70;25.20
12156;DHT22;6141;49.092;8.516;2023-05-19T01:43:25;14.50;25.80
12156;DHT22;6141;49.092;8.516;2023-05-19T01:46:14;14.40;26.10
12156;DHT22;6141;49.092;8.516;2023-05-19T01:49:05;14.30;26.60
12156;DHT22;6141;49.092;8.516;2023-05-19T01:51:55;14.40;25.80
12156;DHT22;6141;49.092;8.516;2023-05-19T01:54:44;14.30;27.00
12156;DHT22;6141;49.092;8.516;2023-05-19T01:57:46;14.30;26.60
12156;DHT22;6141;49.092;8.516;2023-05-19T02:00:49;14.40;26.70
12156;DHT22;6141;49.092;8.516;2023-05-19T02:04:00;14.10;27.10
12156;DHT22;6141;49.092;8.516;2023-05-19T02:07:01;14.30;26.60
12156;DHT22;6141;49.092;8.516;2023-05-19T02:10:00;14.40;26.70
12156;DHT22;6141;49.092;8.516;2023-05-19T02:12:53;14.20;26.60
12156;DHT22;6141;49.092;8.516;2023-05-19T02:15:47;14.10;26.90
12156;DHT22;6141;49.092;8.516;2023-05-19T02:18:39;14.10;27.00
12156;DHT22;6141;49.092;8.516;2023-05-19T02:21:34;13.90;27.20
12156;DHT22;6141;49.092;8.516;2023-05-19T02:24:28;13.60;28.10
12156;DHT22;6141;49.092;8.516;2023-05-19T02:27:18;13.50;28.50
12156;DHT22;6141;49.092;8.516;2023-05-19T02:30:08;13.40;28.60
12156;DHT22;6141;49.092;8.516;2023-05-19T02:32:57;13.40;28.40
12156;DHT22;6141;49.092;8.516;2023-05-19T02:35:46;13.50;28.40
12156;DHT22;6141;49.092;8.516;2023-05-19T02:38:35;13.50;28.50
12156;DHT22;6141;49.092;8.516;2023-05-19T02:41:25;13.50;28.80
12156;DHT22;6141;49.092;8.516;2023-05-19T02:44:15;13.40;28.80
12156;DHT22;6141;49.092;8.516;2023-05-19T02:47:05;13.50;28.40
12156;DHT22;6141;49.092;8.516;2023-05-19T02:49:54;13.30;28.60
12156;DHT22;6141;49.092;8.516;2023-05-19T02:52:43;13.00;29.00
12156;DHT22;6141;49.092;8.516;2023-05-19T02:55:31;12.90;29.20
12156;DHT22;6141;49.092;8.516;2023-05-19T02:58:22;12.80;30.00
12156;DHT22;6141;49.092;8.516;2023-05-19T03:01:11;12.80;29.80
12156;DHT22;6141;49.092;8.516;2023-05-19T03:04:00;13.10;29.70
12156;DHT22;6141;49.092;8.516;2023-05-19T03:06:49;13.00;29.60
12156;DHT22;6141;49.092;8.516;2023-05-19T03:09:38;12.90;29.70
12156;DHT22;6141;49.092;8.516;2023-05-19T03:12:26;12.90;30.00
12156;DHT22;6141;49.092;8.516;2023-05-19T03:15:17;13.00;30.00
12156;DHT22;6141;49.092;8.516;2023-05-19T03:18:07;13.10;29.80
12156;DHT22;6141;49.092;8.516;2023-05-19T03:20:56;13.10;30.10
12156;DHT22;6141;49.092;8.516;2023-05-19T03:23:45;13.20;29.10
12156;DHT22;6141;49.092;8.516;2023-05-19T03:26:33;13.20;29.10
12156;DHT22;6141;49.092;8.516;2023-05-19T03:29:23;13.20;29.70
12156;DHT22;6141;49.092;8.516;2023-05-19T03:32:14;13.40;29.70
12156;DHT22;6141;49.092;8.516;2023-05-19T03:35:03;13.40;29.30
12156;DHT22;6141;49.092;8.516;2023-05-19T03:37:52;13.40;29.30
12156;DHT22;6141;49.092;8.516;2023-05-19T03:40:41;13.50;29.40
12156;DHT22;6141;49.092;8.516;2023-05-19T03:43:32;13.40;29.90
12156;DHT22;6141;49.092;8.516;2023-05-19T03:46:23;13.50;29.60
12156;DHT22;6141;49.092;8.516;2023-05-19T03:49:30;13.70;29.50
12156;DHT22;6141;49.092;8.516;2023-05-19T03:52:37;13.80;29.20
12156;DHT22;6141;49.092;8.516;2023-05-19T03:55:40;13.90;30.10
12156;DHT22;6141;49.092;8.516;2023-05-19T03:58:32;13.80;29.60
12156;DHT22;6141;49.092;8.516;2023-05-19T04:01:23;13.90;29.70
12156;DHT22;6141;49.092;8.516;2023-05-19T04:04:13;13.90;29.70
12156;DHT22;6141;49.092;8.516;2023-05-19T04:07:06;13.90;29.70
12156;DHT22;6141;49.092;8.516;2023-05-19T04:09:54;13.80;29.60
12156;DHT22;6141;49.092;8.516;2023-05-19T04:12:43;13.80;29.60
12156;DHT22;6141;49.092;8.516;2023-05-19T04:15:35;13.80;29.60
12156;DHT22;6141;49.092;8.516;2023-05-19T04:18:24;13.80;29.60
12156;DHT22;6141;49.092;8.516;2023-05-19T04:21:15;13.80;30.00
12156;DHT22;6141;49.092;8.516;2023-05-19T04:24:06;13.70;30.40
12156;DHT22;6141;49.092;8.516;2023-05-19T04:26:55;13.70;30.10
12156;DHT22;6141;49.092;8.516;2023-05-19T04:29:50;13.60;31.00
12156;DHT22;6141;49.092;8.516;2023-05-19T04:32:39;13.50;31.30
12156;DHT22;6141;49.092;8.516;2023-05-19T04:35:28;13.50;31.10
12156;DHT22;6141;49.092;8.516;2023-05-19T04:38:19;13.60;30.40
12156;DHT22;6141;49.092;8.516;2023-05-19T04:41:10;13.50;31.10
12156;DHT22;6141;49.092;8.516;2023-05-19T04:44:01;13.60;30.80
12156;DHT22;6141;49.092;8.516;2023-05-19T04:46:50;13.60;31.70
12156;DHT22;6141;49.092;8.516;2023-05-19T04:49:43;13.70;31.30
12156;DHT22;6141;49.092;8.516;2023-05-19T04:52:32;13.60;31.20
12156;DHT22;6141;49.092;8.516;2023-05-19T04:55:25;13.70;31.30
12156;DHT22;6141;49.092;8.516;2023-05-19T04:58:17;13.70;31.00
12156;DHT22;6141;49.092;8.516;2023-05-19T05:01:07;13.70;31.70
12156;DHT22;6141;49.092;8.516;2023-05-19T05:03:57;13.60;31.50
12156;DHT22;6141;49.092;8.516;2023-05-19T05:06:49;13.50;32.10
12156;DHT22;6141;49.092;8.516;2023-05-19T05:09:40;13.40;33.10
12156;DHT22;6141;49.092;8.516;2023-05-19T05:12:30;13.40;32.60
12156;DHT22;6141;49.092;8.516;2023-05-19T05:15:22;13.40;32.90
12156;DHT22;6141;49.092;8.516;2023-05-19T05:18:12;13.50;32.80
12156;DHT22;6141;49.092;8.516;2023-05-19T05:21:04;13.50;32.40
12156;DHT22;6141;49.092;8.516;2023-05-19T05:23:55;13.40;32.90
12156;DHT22;6141;49.092;8.516;2023-05-19T05:26:51;13.40;33.20
12156;DHT22;6141;49.092;8.516;2023-05-19T05:29:40;13.50;32.60
12156;DHT22;6141;49.092;8.516;2023-05-19T05:32:31;13.50;33.20
12156;DHT22;6141;49.092;8.516;2023-05-19T05:35:23;13.50;32.80
12156;DHT22;6141;49.092;8.516;2023-05-19T05:38:12;13.60;32.40
12156;DHT22;6141;49.092;8.516;2023-05-19T05:41:02;13.70;32.60
12156;DHT22;6141;49.092;8.516;2023-05-19T05:43:52;13.70;32.60
12156;DHT22;6141;49.092;8.516;2023-05-19T05:46:43;13.60;33.60
12156;DHT22;6141;49.092;8.516;2023-05-19T05:49:34;13.60;32.80
12156;DHT22;6141;49.092;8.516;2023-05-19T05:52:29;13.80;32.10
12156;DHT22;6141;49.092;8.516;2023-05-19T05:55:20;13.80;31.90
12156;DHT22;6141;49.092;8.516;2023-05-19T05:58:09;13.70;33.10
12156;DHT22;6141;49.092;8.516;2023-05-19T06:00:59;13.70;33.40
12156;DHT22;6141;49.092;8.516;2023-05-19T06:03:49;13.80;33.20
12156;DHT22;6141;49.092;8.516;2023-05-19T06:06:42;13.90;32.90
12156;DHT22;6141;49.092;8.516;2023-05-19T06:09:37;14.00;32.90
12156;DHT22;6141;49.092;8.516;2023-05-19T06:12:28;14.30;32.40
12156;DHT22;6141;49.092;8.516;2023-05-19T06:15:17;14.40;32.10
12156;DHT22;6141;49.092;8.516;2023-05-19T06:18:13;14.40;31.90
12156;DHT22;6141;49.092;8.516;2023-05-19T06:21:07;14.30;32.40
12156;DHT22;6141;49.092;8.516;2023-05-19T06:24:02;14.60;31.60
12156;DHT22;6141;49.092;8.516;2023-05-19T06:26:51;14.50;30.90
12156;DHT22;6141;49.092;8.516;2023-05-19T06:29:40;14.40;31.90
12156;DHT22;6141;49.092;8.516;2023-05-19T06:32:29;14.20;33.10
12156;DHT22;6141;49.092;8.516;2023-05-19T06:35:19;14.10;32.90
12156;DHT22;6141;49.092;8.516;2023-05-19T06:38:09;14.00;31.90
12156;DHT22;6141;49.092;8.516;2023-05-19T06:40:59;14.10;31.40
12156;DHT22;6141;49.092;8.516;2023-05-19T06:43:48;14.20;29.90
12156;DHT22;6141;49.092;8.516;2023-05-19T06:46:41;14.40;30.00
12156;DHT22;6141;49.092;8.516;2023-05-19T06:49:32;14.70;28.90
12156;DHT22;6141;49.092;8.516;2023-05-19T06:52:22;14.80;29.70
12156;DHT22;6141;49.092;8.516;2023-05-19T06:55:11;14.80;29.20
12156;DHT22;6141;49.092;8.516;2023-05-19T06:58:03;15.10;29.00
12156;DHT22;6141;49.092;8.516;2023-05-19T07:00:51;15.30;29.10
12156;DHT22;6141;49.092;8.516;2023-05-19T07:03:42;15.70;28.20
12156;DHT22;6141;49.092;8.516;2023-05-19T07:06:32;15.80;27.00
12156;DHT22;6141;49.092;8.516;2023-05-19T07:09:21;15.90;27.70
12156;DHT22;6141;49.092;8.516;2023-05-19T07:12:11;16.00;28.30
12156;DHT22;6141;49.092;8.516;2023-05-19T07:15:01;16.10;27.00
12156;DHT22;6141;49.092;8.516;2023-05-19T07:17:51;16.30;26.50
12156;DHT22;6141;49.092;8.516;2023-05-19T07:20:40;16.50;26.60
12156;DHT22;6141;49.092;8.516;2023-05-19T07:23:30;16.70;26.70
12156;DHT22;6141;49.092;8.516;2023-05-19T07:26:19;16.90;26.90
12156;DHT22;6141;49.092;8.516;2023-05-19T07:29:09;16.60;26.70
12156;DHT22;6141;49.092;8.516;2023-05-19T07:31:59;16.60;26.70
12156;DHT22;6141;49.092;8.516;2023-05-19T07:34:48;16.30;26.50
12156;DHT22;6141;49.092;8.516;2023-05-19T07:37:36;16.60;26.70
12156;DHT22;6141;49.092;8.516;2023-05-19T07:40:25;16.70;26.80
12156;DHT22;6141;49.092;8.516;2023-05-19T07:43:14;16.70;26.80
12156;DHT22;6141;49.092;8.516;2023-05-19T07:46:04;16.80;26.50
12156;DHT22;6141;49.092;8.516;2023-05-19T07:48:54;16.90;26.70
12156;DHT22;6141;49.092;8.516;2023-05-19T07:51:43;16.80;25.50
12156;DHT22;6141;49.092;8.516;2023-05-19T07:54:32;17.00;25.90
12156;DHT22;6141;49.092;8.516;2023-05-19T07:57:21;17.00;25.30
12156;DHT22;6141;49.092;8.516;2023-05-19T08:00:10;17.20;24.70
12156;DHT22;6141;49.092;8.516;2023-05-19T08:03:02;17.30;25.20
12156;DHT22;6141;49.092;8.516;2023-05-19T08:05:52;17.40;24.50
12156;DHT22;6141;49.092;8.516;2023-05-19T08:08:42;17.60;24.30
12156;DHT22;6141;49.092;8.516;2023-05-19T08:11:30;17.70;23.00
12156;DHT22;6141;49.092;8.516;2023-05-19T08:14:20;17.90;23.60
12156;DHT22;6141;49.092;8.516;2023-05-19T08:17:09;18.10;22.60
12156;DHT22;6141;49.092;8.516;2023-05-19T08:19:57;18.20;22.80
12156;DHT22;6141;49.092;8.516;2023-05-19T08:22:48;18.30;23.00
12156;DHT22;6141;49.092;8.516;2023-05-19T08:25:37;18.20;21.80
12156;DHT22;6141;49.092;8.516;2023-05-19T08:28:27;18.40;21.90
12156;DHT22;6141;49.092;8.516;2023-05-19T08:31:16;18.10;22.70
12156;DHT22;6141;49.092;8.516;2023-05-19T08:34:05;18.10;22.10
12156;DHT22;6141;49.092;8.516;2023-05-19T08:36:54;18.00;23.80
12156;DHT22;6141;49.092;8.516;2023-05-19T08:39:45;18.00;22.60
12156;DHT22;6141;49.092;8.516;2023-05-19T08:42:34;18.10;22.20
12156;DHT22;6141;49.092;8.516;2023-05-19T08:45:26;18.10;21.80
12156;DHT22;6141;49.092;8.516;2023-05-19T08:48:16;18.20;22.80
12156;DHT22;6141;49.092;8.516;2023-05-19T08:51:12;18.00;22.60
12156;DHT22;6141;49.092;8.516;2023-05-19T08:54:08;17.90;22.60
12156;DHT22;6141;49.092;8.516;2023-05-19T08:57:02;18.10;22.70
12156;DHT22;6141;49.092;8.516;2023-05-19T08:59:52;18.20;22.80
12156;DHT22;6141;49.092;8.516;2023-05-19T09:02:42;18.20;22.30
12156;DHT22;6141;49.092;8.516;2023-05-19T09:05:47;18.10;21.10
12156;DHT22;6141;49.092;8.516;2023-05-19T09:08:37;18.20;22.80
12156;DHT22;6141;49.092;8.516;2023-05-19T09:11:26;18.30;21.80
12156;DHT22;6141;49.092;8.516;2023-05-19T09:14:16;18.40;18.90
12156;DHT22;6141;49.092;8.516;2023-05-19T09:17:06;18.60;20.60
12156;DHT22;6141;49.092;8.516;2023-05-19T09:19:55;18.50;20.10
12156;DHT22;6141;49.092;8.516;2023-05-19T09:22:44;18.60;19.40
12156;DHT22;6141;49.092;8.516;2023-05-19T09:25:34;18.70;19.90
12156;DHT22;6141;49.092;8.516;2023-05-19T09:28:24;18.80;20.90
12156;DHT22;6141;49.092;8.516;2023-05-19T09:31:14;19.10;20.00
12156;DHT22;6141;49.092;8.516;2023-05-19T09:34:03;19.40;19.40
12156;DHT22;6141;49.092;8.516;2023-05-19T09:36:53;19.20;18.30
12156;DHT22;6141;49.092;8.516;2023-05-19T09:39:43;19.20;18.30
12156;DHT22;6141;49.092;8.516;2023-05-19T09:42:39;19.20;18.30
12156;DHT22;6141;49.092;8.516;2023-05-19T09:45:29;19.50;16.70
12156;DHT22;6141;49.092;8.516;2023-05-19T09:48:20;19.60;16.30
12156;DHT22;6141;49.092;8.516;2023-05-19T09:51:09;19.80;18.10
12156;DHT22;6141;49.092;8.516;2023-05-19T09:53:58;20.00;18.80
12156;DHT22;6141;49.092;8.516;2023-05-19T09:56:51;20.00;18.00
12156;DHT22;6141;49.092;8.516;2023-05-19T09:59:41;20.30;16.50
12156;DHT22;6141;49.092;8.516;2023-05-19T10:02:31;20.40;15.00
12156;DHT22;6141;49.092;8.516;2023-05-19T10:05:23;20.60;16.50
12156;DHT22;6141;49.092;8.516;2023-05-19T10:08:12;20.40;16.40
12156;DHT22;6141;49.092;8.516;2023-05-19T10:11:04;20.30;15.80
12156;DHT22;6141;49.092;8.516;2023-05-19T10:13:54;20.30;17.30
12156;DHT22;6141;49.092;8.516;2023-05-19T10:16:44;19.80;15.60
12156;DHT22;6141;49.092;8.516;2023-05-19T10:19:35;19.80;18.70
12156;DHT22;6141;49.092;8.516;2023-05-19T10:22:26;20.10;18.30
12156;DHT22;6141;49.092;8.516;2023-05-19T10:25:15;20.30;19.10
12156;DHT22;6141;49.092;8.516;2023-05-19T10:28:08;20.40;17.80
12156;DHT22;6141;49.092;8.516;2023-05-19T10:31:00;20.60;19.30
12156;DHT22;6141;49.092;8.516;2023-05-19T10:34:04;20.60;18.20
12156;DHT22;6141;49.092;8.516;2023-05-19T10:37:03;20.40;19.00
12156;DHT22;6141;49.092;8.516;2023-05-19T10:39:56;20.50;18.40
12156;DHT22;6141;49.092;8.516;2023-05-19T10:42:56;20.80;18.10
12156;DHT22;6141;49.092;8.516;2023-05-19T10:45:51;20.90;17.50
12156;DHT22;6141;49.092;8.516;2023-05-19T10:48:43;20.80;19.00
12156;DHT22;6141;49.092;8.516;2023-05-19T10:51:33;20.80;17.50
12156;DHT22;6141;49.092;8.516;2023-05-19T10:54:37;20.90;17.30
12156;DHT22;6141;49.092;8.516;2023-05-19T10:57:29;20.90;18.20
12156;DHT22;6141;49.092;8.516;2023-05-19T11:00:26;20.90;18.40
12156;DHT22;6141;49.092;8.516;2023-05-19T11:03:16;21.00;19.70
12156;DHT22;6141;49.092;8.516;2023-05-19T11:06:24;20.80;19.20
12156;DHT22;6141;49.092;8.516;2023-05-19T11:09:17;20.70;19.50
12156;DHT22;6141;49.092;8.516;2023-05-19T11:12:23;20.70;18.90
12156;DHT22;6141;49.092;8.516;2023-05-19T11:15:15;20.50;19.90
12156;DHT22;6141;49.092;8.516;2023-05-19T11:18:03;20.40;19.20
12156;DHT22;6141;49.092;8.516;2023-05-19T11:20:55;20.40;19.30
12156;DHT22;6141;49.092;8.516;2023-05-19T11:23:50;20.00;20.30
12156;DHT22;6141;49.092;8.516;2023-05-19T11:26:41;20.30;20.00
12156;DHT22;6141;49.092;8.516;2023-05-19T11:29:30;20.40;20.20
12156;DHT22;6141;49.092;8.516;2023-05-19T11:32:26;20.70;21.10
12156;DHT22;6141;49.092;8.516;2023-05-19T11:35:17;20.70;19.50
12156;DHT22;6141;49.092;8.516;2023-05-19T11:38:08;20.70;20.10
12156;DHT22;6141;49.092;8.516;2023-05-19T11:41:00;20.70;19.30
12156;DHT22;6141;49.092;8.516;2023-05-19T11:43:50;20.40;18.50
12156;DHT22;6141;49.092;8.516;2023-05-19T11:46:40;20.50;19.30
12156;DHT22;6141;49.092;8.516;2023-05-19T11:49:43;20.40;19.20
12156;DHT22;6141;49.092;8.516;2023-05-19T11:52:45;20.40;19.20
12156;DHT22;6141;49.092;8.516;2023-05-19T11:55:41;20.20;19.10
12156;DHT22;6141;49.092;8.516;2023-05-19T11:58:31;20.10;20.50
12156;DHT22;6141;49.092;8.516;2023-05-19T12:01:22;20.00;19.50
12156;DHT22;6141;49.092;8.516;2023-05-19T12:04:13;20.00;20.00
12156;DHT22;6141;49.092;8.516;2023-05-19T12:07:04;20.10;20.50
12156;DHT22;6141;49.092;8.516;2023-05-19T12:09:54;20.00;18.90
12156;DHT22;6141;49.092;8.516;2023-05-19T12:12:44;20.00;21.20
12156;DHT22;6141;49.092;8.516;2023-05-19T12:15:34;19.90;21.00
12156;DHT22;6141;49.092;8.516;2023-05-19T12:18:28;20.00;20.50
12156;DHT22;6141;49.092;8.516;2023-05-19T12:21:17;19.90;20.60
12156;DHT22;6141;49.092;8.516;2023-05-19T12:24:07;19.90;19.50
12156;DHT22;6141;49.092;8.516;2023-05-19T12:27:04;19.80;20.60
12156;DHT22;6141;49.092;8.516;2023-05-19T12:29:55;20.00;21.60
12156;DHT22;6141;49.092;8.516;2023-05-19T12:32:45;20.00;20.90
12156;DHT22;6141;49.092;8.516;2023-05-19T12:35:36;19.90;21.30
12156;DHT22;6141;49.092;8.516;2023-05-19T12:38:25;19.60;22.20
12156;DHT22;6141;49.092;8.516;2023-05-19T12:41:16;19.40;22.40
12156;DHT22;6141;49.092;8.516;2023-05-19T12:44:13;19.40;21.80
12156;DHT22;6141;49.092;8.516;2023-05-19T12:47:03;19.40;21.20
12156;DHT22;6141;49.092;8.516;2023-05-19T12:49:59;19.30;22.50
12156;DHT22;6141;49.092;8.516;2023-05-19T12:52:49;19.30;22.30
12156;DHT22;6141;49.092;8.516;2023-05-19T12:55:40;19.10;22.40
12156;DHT22;6141;49.092;8.516;2023-05-19T12:58:33;19.20;23.50
12156;DHT22;6141;49.092;8.516;2023-05-19T13:01:22;18.90;22.00
12156;DHT22;6141;49.092;8.516;2023-05-19T13:04:11;19.10;23.10
12156;DHT22;6141;49.092;8.516;2023-05-19T13:07:00;19.10;23.50
12156;DHT22;6141;49.092;8.516;2023-05-19T13:09:49;19.00;22.50
12156;DHT22;6141;49.092;8.516;2023-05-19T13:12:38;19.30;23.60
12156;DHT22;6141;49.092;8.516;2023-05-19T13:15:30;19.40;22.30
12156;DHT22;6141;49.092;8.516;2023-05-19T13:18:21;19.30;22.60
12156;DHT22;6141;49.092;8.516;2023-05-19T13:21:12;19.40;22.00
12156;DHT22;6141;49.092;8.516;2023-05-19T13:24:01;19.20;22.40
12156;DHT22;6141;49.092;8.516;2023-05-19T13:26:51;19.20;23.50
12156;DHT22;6141;49.092;8.516;2023-05-19T13:29:42;19.10;23.50
12156;DHT22;6141;49.092;8.516;2023-05-19T13:32:34;19.30;23.60
12156;DHT22;6141;49.092;8.516;2023-05-19T13:35:23;19.10;23.50
12156;DHT22;6141;49.092;8.516;2023-05-19T13:38:12;19.00;23.40
12156;DHT22;6141;49.092;8.516;2023-05-19T13:41:01;19.30;23.70
12156;DHT22;6141;49.092;8.516;2023-05-19T13:43:49;19.00;24.50
12156;DHT22;6141;49.092;8.516;2023-05-19T13:46:38;18.90;25.70
12156;DHT22;6141;49.092;8.516;2023-05-19T13:49:34;19.10;24.60
12156;DHT22;6141;49.092;8.516;2023-05-19T13:52:23;19.00;23.80
12156;DHT22;6141;49.092;8.516;2023-05-19T13:55:15;18.90;23.80
12156;DHT22;6141;49.092;8.516;2023-05-19T13:58:04;19.00;25.20
12156;DHT22;6141;49.092;8.516;2023-05-19T14:00:53;18.80;24.10
12156;DHT22;6141;49.092;8.516;2023-05-19T14:03:43;18.80;24.50
12156;DHT22;6141;49.092;8.516;2023-05-19T14:06:33;18.90;23.70
12156;DHT22;6141;49.092;8.516;2023-05-19T14:09:23;19.10;25.20
12156;DHT22;6141;49.092;8.516;2023-05-19T14:12:15;19.20;24.20
12156;DHT22;6141;49.092;8.516;2023-05-19T14:15:05;19.30;25.10
12156;DHT22;6141;49.092;8.516;2023-05-19T14:17:56;19.30;24.50
12156;DHT22;6141;49.092;8.516;2023-05-19T14:20:45;19.20;23.60
12156;DHT22;6141;49.092;8.516;2023-05-19T14:23:37;18.90;23.40
12156;DHT22;6141;49.092;8.516;2023-05-19T14:26:26;18.90;24.50
12156;DHT22;6141;49.092;8.516;2023-05-19T14:29:15;19.10;23.60
12156;DHT22;6141;49.092;8.516;2023-05-19T14:32:05;19.10;23.50
12156;DHT22;6141;49.092;8.516;2023-05-19T14:34:54;19.20;24.40
12156;DHT22;6141;49.092;8.516;2023-05-19T14:37:43;19.00;23.40
12156;DHT22;6141;49.092;8.516;2023-05-19T14:40:35;19.00;24.50
12156;DHT22;6141;49.092;8.516;2023-05-19T14:43:24;18.70;23.20
12156;DHT22;6141;49.092;8.516;2023-05-19T14:46:13;18.70;24.30
12156;DHT22;6141;49.092;8.516;2023-05-19T14:49:02;18.50;24.20
12156;DHT22;6141;49.092;8.516;2023-05-19T14:51:52;18.40;24.30
12156;DHT22;6141;49.092;8.516;2023-05-19T14:54:41;18.50;23.90
12156;DHT22;6141;49.092;8.516;2023-05-19T14:57:32;18.50;23.30
12156;DHT22;6141;49.092;8.516;2023-05-19T15:00:21;18.50;23.80
12156;DHT22;6141;49.092;8.516;2023-05-19T15:03:14;18.60;24.40
12156;DHT22;6141;49.092;8.516;2023-05-19T15:06:07;18.70;24.70
12156;DHT22;6141;49.092;8.516;2023-05-19T15:08:56;18.80;24.40
12156;DHT22;6141;49.092;8.516;2023-05-19T15:11:45;18.90;24.40
12156;DHT22;6141;49.092;8.516;2023-05-19T15:14:36;18.70;24.10
12156;DHT22;6141;49.092;8.516;2023-05-19T15:17:27;18.80;24.30
12156;DHT22;6141;49.092;8.516;2023-05-19T15:20:16;18.80;24.70
12156;DHT22;6141;49.092;8.516;2023-05-19T15:23:04;18.80;23.40
12156;DHT22;6141;49.092;8.516;2023-05-19T15:25:53;18.70;23.20
12156;DHT22;6141;49.092;8.516;2023-05-19T15:28:42;18.80;24.40
12156;DHT22;6141;49.092;8.516;2023-05-19T15:31:32;18.70;23.20
12156;DHT22;6141;49.092;8.516;2023-05-19T15:34:25;18.70;23.90
12156;DHT22;6141;49.092;8.516;2023-05-19T15:37:14;18.70;24.00
12156;DHT22;6141;49.092;8.516;2023-05-19T15:40:03;18.60;23.50
12156;DHT22;6141;49.092;8.516;2023-05-19T15:42:53;18.70;24.70
12156;DHT22;6141;49.092;8.516;2023-05-19T15:45:42;18.80;25.10
12156;DHT22;6141;49.092;8.516;2023-05-19T15:48:32;19.00;24.60
12156;DHT22;6141;49.092;8.516;2023-05-19T15:51:21;19.10;24.10
12156;DHT22;6141;49.092;8.516;2023-05-19T15:54:11;18.90;24.40
12156;DHT22;6141;49.092;8.516;2023-05-19T15:56:59;18.70;25.00
12156;DHT22;6141;49.092;8.516;2023-05-19T15:59:48;18.70;25.30
12156;DHT22;6141;49.092;8.516;2023-05-19T16:02:37;18.90;25.40
12156;DHT22;6141;49.092;8.516;2023-05-19T16:05:27;19.10;25.20
12156;DHT22;6141;49.092;8.516;2023-05-19T16:08:17;19.30;24.00
12156;DHT22;6141;49.092;8.516;2023-05-19T16:11:06;19.40;24.70
12156;DHT22;6141;49.092;8.516;2023-05-19T16:13:55;19.50;24.70
12156;DHT22;6141;49.092;8.516;2023-05-19T16:16:44;19.40;24.80
12156;DHT22;6141;49.092;8.516;2023-05-19T16:19:33;18.90;24.20
12156;DHT22;6141;49.092;8.516;2023-05-19T16:22:24;18.80;25.40
12156;DHT22;6141;49.092;8.516;2023-05-19T16:25:14;18.90;25.40
12156;DHT22;6141;49.092;8.516;2023-05-19T16:28:06;19.00;24.80
12156;DHT22;6141;49.092;8.516;2023-05-19T16:30:56;18.90;25.20
12156;DHT22;6141;49.092;8.516;2023-05-19T16:33:48;19.00;25.50
12156;DHT22;6141;49.092;8.516;2023-05-19T16:36:37;19.20;25.20
12156;DHT22;6141;49.092;8.516;2023-05-19T16:39:27;19.20;24.60
12156;DHT22;6141;49.092;8.516;2023-05-19T16:42:16;19.20;25.10
12156;DHT22;6141;49.092;8.516;2023-05-19T16:45:05;19.30;24.60
12156;DHT22;6141;49.092;8.516;2023-05-19T16:47:54;19.40;25.10
12156;DHT22;6141;49.092;8.516;2023-05-19T16:50:43;19.20;23.90
12156;DHT22;6141;49.092;8.516;2023-05-19T16:53:34;19.20;25.40
12156;DHT22;6141;49.092;8.516;2023-05-19T16:56:25;19.10;25.00
12156;DHT22;6141;49.092;8.516;2023-05-19T16:59:13;19.10;24.80
12156;DHT22;6141;49.092;8.516;2023-05-19T17:02:03;19.20;25.20
12156;DHT22;6141;49.092;8.516;2023-05-19T17:04:52;19.30;25.20
12156;DHT22;6141;49.092;8.516;2023-05-19T17:07:41;19.40;25.10
12156;DHT22;6141;49.092;8.516;2023-05-19T17:10:31;19.60;23.90
12156;DHT22;6141;49.092;8.516;2023-05-19T17:13:21;19.60;23.90
12156;DHT22;6141;49.092;8.516;2023-05-19T17:16:10;19.60;25.30
12156;DHT22;6141;49.092;8.516;2023-05-19T17:18:59;19.60;25.00
12156;DHT22;6141;49.092;8.516;2023-05-19T17:21:48;19.50;25.10
12156;DHT22;6141;49.092;8.516;2023-05-19T17:24:37;19.40;25.10
12156;DHT22;6141;49.092;8.516;2023-05-19T17:27:26;19.40;24.70
12156;DHT22;6141;49.092;8.516;2023-05-19T17:30:18;19.40;25.70
12156;DHT22;6141;49.092;8.516;2023-05-19T17:33:07;19.30;26.60
12156;DHT22;6141;49.092;8.516;2023-05-19T17:35:56;19.30;27.10
12156;DHT22;6141;49.092;8.516;2023-05-19T17:38:45;19.30;26.80
12156;DHT22;6141;49.092;8.516;2023-05-19T17:41:34;19.10;26.50
12156;DHT22;6141;49.092;8.516;2023-05-19T17:44:23;19.10;26.60
12156;DHT22;6141;49.092;8.516;2023-05-19T17:47:13;19.20;27.10
12156;DHT22;6141;49.092;8.516;2023-05-19T17:50:03;19.20;27.00
12156;DHT22;6141;49.092;8.516;2023-05-19T17:52:52;19.30;27.10
12156;DHT22;6141;49.092;8.516;2023-05-19T17:55:47;19.30;27.10
12156;DHT22;6141;49.092;8.516;2023-05-19T17:58:38;19.30;27.60
12156;DHT22;6141;49.092;8.516;2023-05-19T18:01:29;19.40;27.60
12156;DHT22;6141;49.092;8.516;2023-05-19T18:04:20;19.50;27.40
12156;DHT22;6141;49.092;8.516;2023-05-19T18:07:09;19.60;28.00
12156;DHT22;6141;49.092;8.516;2023-05-19T18:09:59;19.70;28.70
12156;DHT22;6141;49.092;8.516;2023-05-19T18:12:48;19.60;27.00
12156;DHT22;6141;49.092;8.516;2023-05-19T18:15:37;19.50;27.40
12156;DHT22;6141;49.092;8.516;2023-05-19T18:18:26;19.50;26.20